Time;durP1;ratioP1;P1;durP2;ratioP2;P2;SDS_P1;SDS_P2;PMS_P1;PMS_P2;Temp;Humidity;BMP_temperature;BMP_pressure;BME280_temperature;BME280_humidity;BME280_pressure;Samples;Min_cycle;Max_cycle;Signal;HPM_P1;HPM_P2
2023/03/18 00:00:34;;;;;;;22.67;10.43;;;;;;;;;;10490666;28;20047;-75
2023/03/18 00:06:02;;;;;;;19.65;10.65;;;;;;;;;;10529858;28;20040;-75
2023/03/18 00:11:23;;;;;;;23.65;10.93;;;;;;;;;;10510214;28;20031;-75
2023/03/18 00:16:44;;;;;;;17.77;9.52;;;;;;;;;;10519865;28;20032;-75
2023/03/18 00:22:07;;;;;;;32.00;12.75;;;;;;;;;;10503033;28;20068;-75
2023/03/18 00:27:28;;;;;;;24.30;11.38;;;;;;;;;;10484570;28;20032;-75
2023/03/18 00:32:48;;;;;;;26.55;12.30;;;;;;;;;;10487560;28;20032;-75
2023/03/18 00:38:19;;;;;;;28.05;13.27;;;;;;;;;;10512916;28;20120;-75
2023/03/18 00:43:53;;;;;;;27.13;12.05;;;;;;;;;;10508927;28;20032;-75
2023/03/18 00:49:16;;;;;;;23.80;11.57;;;;;;;;;;10495805;28;20119;-75
2023/03/18 00:54:37;;;;;;;23.77;11.82;;;;;;;;;;10481979;28;20040;-75
2023/03/18 00:59:58;;;;;;;21.80;11.70;;;;;;;;;;10502897;28;20044;-74
2023/03/18 01:05:19;;;;;;;25.30;12.63;;;;;;;;;;10512480;28;20043;-74
2023/03/18 01:10:40;;;;;;;18.10;10.90;;;;;;;;;;10515620;28;20036;-75
2023/03/18 01:16:02;;;;;;;20.63;11.13;;;;;;;;;;10489458;28;20046;-75
2023/03/18 01:21:22;;;;;;;20.05;10.90;;;;;;;;;;10509991;28;20039;-76
2023/03/18 01:26:44;;;;;;;18.00;10.45;;;;;;;;;;10546076;28;20020;-77
2023/03/18 01:32:05;;;;;;;25.23;11.40;;;;;;;;;;10527050;28;20032;-75
2023/03/18 01:37:25;;;;;;;30.63;12.80;;;;;;;;;;10485667;28;20493;-77
2023/03/18 01:42:51;;;;;;;32.42;14.20;;;;;;;;;;10475288;28;20511;-78
2023/03/18 01:48:14;;;;;;;34.20;14.73;;;;;;;;;;10480107;28;20032;-77
2023/03/18 01:53:38;;;;;;;36.28;14.70;;;;;;;;;;10444458;28;20437;-76
2023/03/18 01:58:59;;;;;;;31.00;14.63;;;;;;;;;;10499137;28;20051;-75
2023/03/18 02:04:22;;;;;;;31.30;14.77;;;;;;;;;;10507965;28;20029;-76
2023/03/18 02:09:44;;;;;;;32.38;14.57;;;;;;;;;;10496586;28;20075;-75
2023/03/18 02:15:06;;;;;;;32.55;15.55;;;;;;;;;;10517552;28;20032;-75
2023/03/18 02:20:38;;;;;;;36.75;16.90;;;;;;;;;;10497502;28;20032;-76
2023/03/18 02:26:07;;;;;;;37.15;17.30;;;;;;;;;;10502568;28;20032;-76
2023/03/18 02:31:28;;;;;;;38.05;16.30;;;;;;;;;;10491404;28;20532;-76
2023/03/18 02:36:49;;;;;;;29.35;15.38;;;;;;;;;;10498118;28;20036;-76
2023/03/18 02:42:12;;;;;;;33.05;16.05;;;;;;;;;;10478193;28;20051;-75
2023/03/18 02:47:33;;;;;;;43.42;18.38;;;;;;;;;;10490981;28;20040;-76
2023/03/18 02:52:54;;;;;;;35.90;17.05;;;;;;;;;;10480371;28;20079;-75
2023/03/18 02:58:15;;;;;;;41.25;18.48;;;;;;;;;;10486699;28;20044;-75
2023/03/18 03:03:36;;;;;;;28.88;16.15;;;;;;;;;;10508541;28;20028;-75
2023/03/18 03:08:57;;;;;;;32.78;18.95;;;;;;;;;;10508436;28;20047;-75
2023/03/18 03:14:18;;;;;;;42.78;19.00;;;;;;;;;;10478479;28;21396;-75
2023/03/18 03:19:39;;;;;;;39.08;20.00;;;;;;;;;;10491788;28;20397;-75
2023/03/18 03:25:00;;;;;;;43.85;19.60;;;;;;;;;;10487315;28;20040;-75
2023/03/18 03:30:22;;;;;;;44.80;18.95;;;;;;;;;;10486751;28;20040;-75
2023/03/18 03:35:43;;;;;;;51.13;22.33;;;;;;;;;;10511808;27;20044;-75
2023/03/18 03:41:04;;;;;;;49.78;21.20;;;;;;;;;;10471825;28;20048;-76
2023/03/18 03:46:25;;;;;;;45.65;20.23;;;;;;;;;;10478219;28;20039;-75
2023/03/18 03:51:46;;;;;;;40.25;20.10;;;;;;;;;;10491660;28;20044;-75
2023/03/18 03:57:07;;;;;;;42.17;19.80;;;;;;;;;;10463269;28;20071;-74
2023/03/18 04:02:28;;;;;;;36.42;17.17;;;;;;;;;;10474958;28;20032;-75
2023/03/18 04:07:50;;;;;;;47.40;21.10;;;;;;;;;;10470248;28;20603;-74
2023/03/18 04:13:11;;;;;;;45.40;19.33;;;;;;;;;;10470790;28;20040;-75
2023/03/18 04:18:32;;;;;;;42.53;19.77;;;;;;;;;;10468356;28;20040;-76
2023/03/18 04:23:53;;;;;;;40.70;20.98;;;;;;;;;;10472924;28;20040;-75
2023/03/18 04:29:13;;;;;;;46.33;22.45;;;;;;;;;;10479920;28;20037;-75
2023/03/18 04:34:35;;;;;;;42.05;20.63;;;;;;;;;;10457618;28;20041;-75
2023/03/18 04:39:58;;;;;;;40.10;19.83;;;;;;;;;;10460757;28;20040;-76
2023/03/18 04:45:18;;;;;;;48.13;21.70;;;;;;;;;;10471361;28;20033;-76
2023/03/18 04:50:39;;;;;;;44.50;20.42;;;;;;;;;;10455269;28;20516;-75
2023/03/18 04:56:00;;;;;;;47.00;21.25;;;;;;;;;;10491104;28;20505;-75
2023/03/18 05:01:22;;;;;;;45.63;22.13;;;;;;;;;;10506828;28;20056;-75
2023/03/18 05:06:43;;;;;;;41.60;20.23;;;;;;;;;;10512369;28;20398;-76
2023/03/18 05:12:04;;;;;;;45.63;21.65;;;;;;;;;;10520768;28;20036;-75
2023/03/18 05:17:24;;;;;;;44.55;22.23;;;;;;;;;;10507771;28;20397;-75
2023/03/18 05:22:45;;;;;;;49.30;21.35;;;;;;;;;;10512293;28;20055;-75
2023/03/18 05:28:06;;;;;;;53.78;24.02;;;;;;;;;;10509507;28;20047;-75
2023/03/18 05:33:27;;;;;;;49.25;23.17;;;;;;;;;;10497566;28;20036;-76
2023/03/18 05:38:48;;;;;;;51.03;23.58;;;;;;;;;;10476185;28;20040;-76
2023/03/18 05:44:09;;;;;;;45.50;21.02;;;;;;;;;;10496417;28;20058;-76
2023/03/18 05:49:30;;;;;;;50.42;22.02;;;;;;;;;;10513313;28;20676;-76
2023/03/18 05:54:51;;;;;;;55.35;24.05;;;;;;;;;;10517542;27;20504;-77
2023/03/18 06:00:12;;;;;;;46.65;20.95;;;;;;;;;;10488205;28;20062;-76
2023/03/18 06:05:33;;;;;;;45.70;20.73;;;;;;;;;;10493649;28;20028;-76
2023/03/18 06:10:54;;;;;;;46.78;20.55;;;;;;;;;;10504458;28;20032;-75
2023/03/18 06:16:15;;;;;;;50.67;21.35;;;;;;;;;;10503202;28;20040;-76
2023/03/18 06:21:37;;;;;;;37.42;17.85;;;;;;;;;;10490700;28;20043;-76
2023/03/18 06:26:58;;;;;;;44.58;18.42;;;;;;;;;;10514003;28;20036;-76
2023/03/18 06:32:20;;;;;;;46.03;22.05;;;;;;;;;;10513622;28;20027;-76
2023/03/18 06:37:42;;;;;;;42.97;19.60;;;;;;;;;;10500200;28;20519;-76
2023/03/18 06:43:03;;;;;;;44.92;19.70;;;;;;;;;;10514073;28;20028;-76
2023/03/18 06:48:24;;;;;;;43.13;20.98;;;;;;;;;;10522359;28;20520;-76
2023/03/18 06:53:45;;;;;;;31.65;16.95;;;;;;;;;;10517595;28;20055;-76
2023/03/18 06:59:07;;;;;;;45.65;20.05;;;;;;;;;;10518060;28;21300;-76
2023/03/18 07:04:28;;;;;;;35.25;17.52;;;;;;;;;;10515698;28;20542;-76
2023/03/18 07:09:49;;;;;;;30.60;16.50;;;;;;;;;;10526635;28;20032;-76
2023/03/18 07:15:10;;;;;;;31.50;15.73;;;;;;;;;;10523649;28;20036;-76
2023/03/18 07:20:32;;;;;;;31.13;15.55;;;;;;;;;;10509584;28;20039;-77
2023/03/18 07:25:53;;;;;;;28.17;15.48;;;;;;;;;;10525870;28;20385;-77
2023/03/18 07:31:15;;;;;;;24.00;13.23;;;;;;;;;;10516728;28;20039;-76
2023/03/18 07:36:37;;;;;;;38.17;16.02;;;;;;;;;;10498018;28;20032;-78
2023/03/18 07:41:58;;;;;;;20.58;12.10;;;;;;;;;;10501542;28;20040;-77
2023/03/18 07:47:19;;;;;;;28.08;14.00;;;;;;;;;;10525491;28;20516;-77
2023/03/18 07:52:41;;;;;;;26.52;13.32;;;;;;;;;;10532443;28;20047;-74
2023/03/18 07:58:03;;;;;;;20.00;12.10;;;;;;;;;;10515590;28;20381;-74
2023/03/18 08:03:24;;;;;;;30.20;15.77;;;;;;;;;;10513040;28;20023;-74
2023/03/18 08:08:45;;;;;;;23.52;12.23;;;;;;;;;;10525696;28;20036;-73
2023/03/18 08:14:06;;;;;;;19.92;12.02;;;;;;;;;;10524803;28;20028;-74
2023/03/18 08:19:27;;;;;;;23.00;13.45;;;;;;;;;;10527391;28;20065;-74
2023/03/18 08:24:48;;;;;;;20.90;11.02;;;;;;;;;;10512282;28;20024;-74
2023/03/18 08:30:09;;;;;;;25.45;12.05;;;;;;;;;;10522324;28;20036;-74
2023/03/18 08:35:30;;;;;;;17.92;9.60;;;;;;;;;;10525893;28;20036;-74
2023/03/18 08:40:51;;;;;;;17.00;10.10;;;;;;;;;;10528057;28;20031;-74
2023/03/18 08:46:12;;;;;;;27.83;11.68;;;;;;;;;;10497752;28;20071;-73
2023/03/18 08:51:33;;;;;;;21.15;10.48;;;;;;;;;;10516847;28;20028;-73
2023/03/18 08:56:55;;;;;;;19.60;9.20;;;;;;;;;;10474488;28;20497;-72
2023/03/18 09:02:17;;;;;;;13.55;8.85;;;;;;;;;;10462384;28;20021;-77
2023/03/18 09:07:38;;;;;;;18.50;9.82;;;;;;;;;;10467044;28;20071;-77
2023/03/18 09:12:59;;;;;;;19.17;10.10;;;;;;;;;;10461990;28;20083;-78
2023/03/18 09:18:21;;;;;;;21.73;10.25;;;;;;;;;;10466614;28;20068;-77
2023/03/18 09:23:43;;;;;;;17.17;9.65;;;;;;;;;;10473049;28;20370;-78
2023/03/18 09:29:04;;;;;;;22.42;10.15;;;;;;;;;;10490045;28;20036;-78
2023/03/18 09:34:26;;;;;;;33.60;13.63;;;;;;;;;;10441206;28;20831;-77
2023/03/18 09:39:47;;;;;;;26.23;11.27;;;;;;;;;;10419336;28;20037;-77
2023/03/18 09:45:28;;;;;;;28.73;12.43;;;;;;;;;;10423052;28;20037;-77
2023/03/18 09:50:49;;;;;;;;;;;;;;;;;;10414262;28;20064;-78
2023/03/18 09:56:16;;;;;;;25.73;11.33;;;;;;;;;;10477835;27;20281;-77
2023/03/18 10:01:38;;;;;;;29.65;11.85;;;;;;;;;;10485272;28;20984;-77
2023/03/18 10:07:01;;;;;;;21.35;10.10;;;;;;;;;;10497681;27;20032;-77
2023/03/18 10:12:30;;;;;;;22.33;9.80;;;;;;;;;;10483531;28;20028;-77
2023/03/18 10:17:55;;;;;;;22.50;9.25;;;;;;;;;;10482935;28;20036;-77
2023/03/18 10:23:34;;;;;;;23.98;9.38;;;;;;;;;;10480604;28;20044;-77
2023/03/18 10:28:56;;;;;;;25.52;10.88;;;;;;;;;;10482191;28;20036;-77
2023/03/18 10:34:20;;;;;;;19.23;10.13;;;;;;;;;;10492746;27;20505;-78
2023/03/18 10:39:44;;;;;;;22.92;10.15;;;;;;;;;;10470060;28;20036;-77
2023/03/18 10:45:25;;;;;;;21.75;9.80;;;;;;;;;;10470194;28;20912;-77
2023/03/18 10:50:51;;;;;;;21.88;9.07;;;;;;;;;;10476043;28;20402;-78
2023/03/18 10:56:13;;;;;;;20.65;8.45;;;;;;;;;;10487858;28;20066;-78
2023/03/18 11:01:35;;;;;;;21.20;9.63;;;;;;;;;;10475343;28;20493;-78
2023/03/18 11:07:01;;;;;;;16.25;7.03;;;;;;;;;;10472384;28;20047;-77
2023/03/18 11:12:24;;;;;;;18.63;7.07;;;;;;;;;;10496366;27;20192;-78
2023/03/18 11:17:47;;;;;;;17.67;6.60;;;;;;;;;;10473373;28;20417;-77
2023/03/18 11:23:34;;;;;;;18.70;7.68;;;;;;;;;;10486020;28;20048;-78
2023/03/18 11:28:57;;;;;;;25.73;9.38;;;;;;;;;;10498575;27;20059;-76
2023/03/18 11:34:21;;;;;;;17.50;7.68;;;;;;;;;;10486003;28;20035;-77
2023/03/18 11:39:42;;;;;;;23.13;8.45;;;;;;;;;;10465319;28;20056;-78
2023/03/18 11:45:07;;;;;;;24.98;9.65;;;;;;;;;;10485379;28;20032;-78
2023/03/18 11:50:40;;;;;;;21.88;8.73;;;;;;;;;;10482072;28;20032;-79
2023/03/18 11:56:15;;;;;;;25.15;8.93;;;;;;;;;;10467664;28;20054;-77
2023/03/18 12:01:56;;;;;;;23.48;8.13;;;;;;;;;;10471333;28;20044;-79
2023/03/18 12:07:25;;;;;;;22.23;8.60;;;;;;;;;;10482156;28;21260;-77
2023/03/18 12:13:06;;;;;;;19.23;7.93;;;;;;;;;;10495736;28;20351;-78
2023/03/18 12:18:29;;;;;;;24.33;8.77;;;;;;;;;;10478698;28;20048;-78
2023/03/18 12:24:09;;;;;;;20.95;8.98;;;;;;;;;;10481842;28;20027;-77
2023/03/18 12:29:30;;;;;;;29.67;9.65;;;;;;;;;;10475491;28;20666;-78
2023/03/18 12:35:04;;;;;;;28.50;9.23;;;;;;;;;;10485110;27;20416;-78
2023/03/18 12:40:32;;;;;;;23.10;8.05;;;;;;;;;;10467246;28;20033;-78
2023/03/18 12:46:01;;;;;;;25.63;9.57;;;;;;;;;;10474785;28;20028;-78
2023/03/18 12:51:27;;;;;;;25.20;9.63;;;;;;;;;;10486984;28;21177;-78
2023/03/18 12:56:51;;;;;;;19.48;8.07;;;;;;;;;;10456865;28;20054;-78
2023/03/18 13:02:12;;;;;;;24.15;8.43;;;;;;;;;;10478841;28;20377;-79
2023/03/18 13:07:43;;;;;;;27.35;8.75;;;;;;;;;;10460667;28;20485;-79
2023/03/18 13:13:06;;;;;;;8.38;4.70;;;;;;;;;;10482545;28;20055;-78
2023/03/18 13:18:35;;;;;;;10.15;4.93;;;;;;;;;;10510785;28;20055;-79
2023/03/18 13:24:13;;;;;;;10.30;6.13;;;;;;;;;;10504090;28;20059;-78
2023/03/18 13:29:44;;;;;;;12.90;6.22;;;;;;;;;;10515828;28;20641;-78
2023/03/18 13:35:24;;;;;;;11.90;6.38;;;;;;;;;;10509138;28;20028;-78
2023/03/18 13:41:09;;;;;;;16.67;7.20;;;;;;;;;;10512962;28;20040;-78
2023/03/18 13:46:31;;;;;;;14.32;7.05;;;;;;;;;;10511526;28;20488;-77
2023/03/18 13:51:55;;;;;;;14.85;6.43;;;;;;;;;;10513238;28;20401;-79
2023/03/18 13:57:31;;;;;;;14.38;6.60;;;;;;;;;;10501585;28;20515;-78
2023/03/18 14:03:03;;;;;;;15.02;6.40;;;;;;;;;;10512838;28;20039;-78
2023/03/18 14:08:37;;;;;;;19.60;8.02;;;;;;;;;;10492605;28;20043;-79
2023/03/18 14:14:00;;;;;;;10.07;5.32;;;;;;;;;;10504004;28;20028;-79
2023/03/18 14:19:31;;;;;;;21.85;7.72;;;;;;;;;;10495765;28;20048;-79
2023/03/18 14:25:10;;;;;;;11.60;6.00;;;;;;;;;;10538677;28;20046;-79
2023/03/18 14:30:32;;;;;;;19.85;6.85;;;;;;;;;;10501073;28;20038;-78
2023/03/18 14:35:56;;;;;;;13.27;5.97;;;;;;;;;;10505527;28;20047;-79
2023/03/18 14:41:25;;;;;;;16.90;6.75;;;;;;;;;;10506199;28;20397;-76
2023/03/18 14:46:48;;;;;;;17.08;6.43;;;;;;;;;;10517710;28;20028;-76
2023/03/18 14:52:20;;;;;;;20.00;7.30;;;;;;;;;;10477759;28;20043;-76
2023/03/18 14:57:41;;;;;;;26.00;8.63;;;;;;;;;;10465578;28;20040;-76
2023/03/18 15:03:04;;;;;;;22.77;7.72;;;;;;;;;;10478295;28;20032;-75
2023/03/18 15:08:26;;;;;;;22.45;8.07;;;;;;;;;;10497841;27;20098;-76
2023/03/18 15:13:47;;;;;;;17.13;7.00;;;;;;;;;;10467993;28;20036;-76
2023/03/18 15:19:10;;;;;;;21.02;7.20;;;;;;;;;;10465203;28;20054;-77
2023/03/18 15:24:31;;;;;;;18.88;7.50;;;;;;;;;;10473649;28;20059;-76
2023/03/18 15:29:56;;;;;;;16.50;6.78;;;;;;;;;;10463264;28;20032;-75
2023/03/18 15:35:23;;;;;;;17.67;6.85;;;;;;;;;;10469784;28;20024;-76
2023/03/18 15:40:46;;;;;;;18.15;7.63;;;;;;;;;;10485455;28;20481;-76
2023/03/18 15:46:14;;;;;;;16.90;6.80;;;;;;;;;;10482504;28;20032;-75
2023/03/18 15:51:41;;;;;;;16.67;6.57;;;;;;;;;;10464971;28;20400;-76
2023/03/18 15:57:09;;;;;;;24.13;8.23;;;;;;;;;;10473876;28;20059;-76
2023/03/18 16:02:32;;;;;;;18.80;7.28;;;;;;;;;;10479192;28;20029;-78
2023/03/18 16:07:53;;;;;;;19.85;7.25;;;;;;;;;;10487820;28;20039;-78
2023/03/18 16:13:19;;;;;;;18.10;6.68;;;;;;;;;;10487348;28;20039;-78
2023/03/18 16:18:40;;;;;;;21.63;7.70;;;;;;;;;;10460041;28;20035;-79
2023/03/18 16:24:02;;;;;;;28.23;9.45;;;;;;;;;;10482065;28;20531;-79
2023/03/18 16:29:30;;;;;;;21.33;7.10;;;;;;;;;;10465986;28;20028;-79
2023/03/18 16:34:51;;;;;;;21.13;7.45;;;;;;;;;;10478944;28;20393;-79
2023/03/18 16:40:14;;;;;;;26.85;8.85;;;;;;;;;;10470497;28;20413;-79
2023/03/18 16:45:36;;;;;;;14.35;5.70;;;;;;;;;;10464363;28;20024;-79
2023/03/18 16:50:57;;;;;;;17.58;7.18;;;;;;;;;;10494129;28;20024;-79
2023/03/18 16:56:19;;;;;;;22.52;7.82;;;;;;;;;;10492168;27;20071;-78
2023/03/18 17:01:42;;;;;;;27.88;8.85;;;;;;;;;;10455435;28;20044;-78
2023/03/18 17:07:03;;;;;;;31.67;10.13;;;;;;;;;;10474228;28;20027;-78
2023/03/18 17:12:25;;;;;;;27.73;9.70;;;;;;;;;;10461693;28;20044;-79
2023/03/18 17:17:46;;;;;;;28.65;9.20;;;;;;;;;;10463300;28;21085;-78
2023/03/18 17:23:10;;;;;;;19.08;7.03;;;;;;;;;;10450446;28;20044;-78
2023/03/18 17:28:34;;;;;;;21.17;9.48;;;;;;;;;;10456247;28;20052;-78
2023/03/18 17:33:55;;;;;;;23.80;9.55;;;;;;;;;;10444561;28;20718;-78
2023/03/18 17:39:16;;;;;;;20.60;7.95;;;;;;;;;;10457741;28;20039;-77
2023/03/18 17:44:37;;;;;;;17.10;7.03;;;;;;;;;;10472238;28;20111;-78
2023/03/18 17:49:58;;;;;;;23.17;8.32;;;;;;;;;;10479225;28;20050;-78
2023/03/18 17:55:20;;;;;;;25.10;8.43;;;;;;;;;;10470856;28;20243;-78
2023/03/18 18:00:41;;;;;;;26.70;10.13;;;;;;;;;;10473988;28;20160;-78
2023/03/18 18:06:03;;;;;;;21.67;7.65;;;;;;;;;;10486920;28;20028;-78
2023/03/18 18:11:31;;;;;;;21.50;7.80;;;;;;;;;;10469769;28;20028;-78
2023/03/18 18:16:54;;;;;;;19.80;7.95;;;;;;;;;;10470676;28;20493;-80
2023/03/18 18:22:15;;;;;;;19.85;7.55;;;;;;;;;;10471135;28;20024;-80
2023/03/18 18:27:36;;;;;;;22.20;7.18;;;;;;;;;;10472734;28;20079;-80
2023/03/18 18:32:57;;;;;;;20.70;7.63;;;;;;;;;;10498414;28;20492;-80
2023/03/18 18:38:18;;;;;;;19.60;8.05;;;;;;;;;;10472632;28;20045;-80
2023/03/18 18:43:39;;;;;;;19.77;8.05;;;;;;;;;;10489234;28;20067;-80
2023/03/18 18:49:00;;;;;;;24.63;8.93;;;;;;;;;;10474869;28;21339;-80
2023/03/18 18:54:21;;;;;;;23.33;8.38;;;;;;;;;;10450713;28;20053;-80
2023/03/18 18:59:42;;;;;;;19.23;7.55;;;;;;;;;;10446862;28;20056;-80
2023/03/18 19:05:04;;;;;;;18.85;8.07;;;;;;;;;;10453415;28;20033;-80
2023/03/18 19:10:25;;;;;;;18.58;7.15;;;;;;;;;;10441085;28;20033;-80
2023/03/18 19:15:47;;;;;;;19.60;7.90;;;;;;;;;;10422591;28;20059;-80
2023/03/18 19:21:08;;;;;;;20.13;8.52;;;;;;;;;;10450296;28;20029;-80
2023/03/18 19:26:29;;;;;;;18.85;7.50;;;;;;;;;;10450396;28;20067;-80
2023/03/18 19:31:50;;;;;;;20.17;8.10;;;;;;;;;;10447006;28;20036;-80
2023/03/18 19:37:17;;;;;;;21.30;8.25;;;;;;;;;;10425469;28;20043;-80
2023/03/18 19:42:38;;;;;;;20.23;7.88;;;;;;;;;;10436653;28;20029;-80
2023/03/18 19:47:59;;;;;;;18.48;7.30;;;;;;;;;;10435588;28;20032;-79
2023/03/18 19:53:22;;;;;;;15.27;6.47;;;;;;;;;;10438810;28;20056;-80
2023/03/18 19:58:43;;;;;;;19.73;7.32;;;;;;;;;;10499765;27;20773;-79
2023/03/18 20:04:06;;;;;;;15.68;6.35;;;;;;;;;;10487961;28;20068;-79
2023/03/18 20:09:27;;;;;;;19.88;7.28;;;;;;;;;;10484443;28;20032;-79
2023/03/18 20:14:48;;;;;;;18.60;6.85;;;;;;;;;;10476302;28;20118;-79
2023/03/18 20:20:13;;;;;;;18.15;7.03;;;;;;;;;;10490743;28;20044;-79
2023/03/18 20:25:37;;;;;;;17.15;7.00;;;;;;;;;;10502460;27;20358;-79
2023/03/18 20:30:59;;;;;;;15.80;6.82;;;;;;;;;;10484492;28;20024;-79
2023/03/18 20:36:20;;;;;;;23.30;8.57;;;;;;;;;;10488395;28;20047;-79
2023/03/18 20:41:41;;;;;;;14.27;6.10;;;;;;;;;;10490282;28;20678;-78
2023/03/18 20:47:02;;;;;;;19.27;7.55;;;;;;;;;;10488927;28;20031;-79
2023/03/18 20:52:25;;;;;;;20.80;6.88;;;;;;;;;;10488486;28;20028;-79
2023/03/18 20:57:46;;;;;;;18.23;7.88;;;;;;;;;;10475782;28;20033;-79
2023/03/18 21:03:18;;;;;;;18.80;7.80;;;;;;;;;;10488552;28;20039;-79
2023/03/18 21:08:40;;;;;;;19.40;8.00;;;;;;;;;;10475689;28;20420;-79
2023/03/18 21:14:03;;;;;;;20.27;8.20;;;;;;;;;;10471718;28;20047;-79
2023/03/18 21:19:24;;;;;;;16.70;7.38;;;;;;;;;;10481324;28;20074;-79
2023/03/18 21:24:45;;;;;;;24.30;9.02;;;;;;;;;;10506732;27;20033;-79
2023/03/18 21:30:08;;;;;;;15.95;7.00;;;;;;;;;;10491664;28;20500;-79
2023/03/18 21:35:30;;;;;;;21.98;8.18;;;;;;;;;;10493051;28;20055;-79
2023/03/18 21:40:51;;;;;;;22.23;8.15;;;;;;;;;;10490175;28;20040;-79
2023/03/18 21:46:14;;;;;;;18.92;7.38;;;;;;;;;;10480101;28;20527;-80
2023/03/18 21:51:36;;;;;;;19.15;8.05;;;;;;;;;;10498135;28;20047;-80
2023/03/18 21:56:57;;;;;;;15.80;6.82;;;;;;;;;;10508424;27;20082;-78
2023/03/18 22:02:21;;;;;;;22.38;8.35;;;;;;;;;;10494321;28;20047;-78
2023/03/18 22:07:41;;;;;;;25.10;8.95;;;;;;;;;;10493724;28;20039;-78
2023/03/18 22:13:18;;;;;;;17.10;6.78;;;;;;;;;;10480407;28;20043;-78
2023/03/18 22:18:42;;;;;;;15.80;7.10;;;;;;;;;;10493230;28;20051;-78
2023/03/18 22:24:03;;;;;;;19.25;7.85;;;;;;;;;;10491340;28;20039;-79
2023/03/18 22:29:24;;;;;;;14.98;6.65;;;;;;;;;;10498876;27;20035;-80
2023/03/18 22:34:45;;;;;;;19.95;8.02;;;;;;;;;;10477992;28;20291;-79
2023/03/18 22:40:07;;;;;;;23.58;8.68;;;;;;;;;;10479302;28;20032;-79
2023/03/18 22:45:32;;;;;;;17.33;7.28;;;;;;;;;;10492314;28;20484;-79
2023/03/18 22:50:53;;;;;;;18.98;8.23;;;;;;;;;;10491531;27;20044;-79
2023/03/18 22:56:15;;;;;;;14.70;7.05;;;;;;;;;;10482260;28;20056;-79
2023/03/18 23:01:36;;;;;;;18.92;7.93;;;;;;;;;;10467926;28;20036;-79
2023/03/18 23:06:57;;;;;;;16.58;7.35;;;;;;;;;;10490623;28;20047;-80
2023/03/18 23:12:18;;;;;;;22.15;8.77;;;;;;;;;;10480797;28;20032;-77
2023/03/18 23:17:40;;;;;;;20.02;8.13;;;;;;;;;;10471193;28;20032;-77
2023/03/18 23:23:00;;;;;;;14.25;6.32;;;;;;;;;;10497735;27;20043;-77
2023/03/18 23:28:21;;;;;;;24.52;10.02;;;;;;;;;;10489182;28;20035;-76
2023/03/18 23:33:42;;;;;;;16.45;7.45;;;;;;;;;;10487430;28;20032;-77
2023/03/18 23:39:03;;;;;;;15.65;7.72;;;;;;;;;;10473213;28;20040;-77
2023/03/18 23:44:25;;;;;;;17.75;8.43;;;;;;;;;;10470895;28;20028;-77
2023/03/18 23:49:46;;;;;;;19.27;7.78;;;;;;;;;;10482894;28;20381;-77
2023/03/18 23:55:07;;;;;;;19.08;8.00;;;;;;;;;;10467652;28;20043;-77
